sensor_id;sensor_type;location;lat;lon;timestamp;pressure;altitude;pressure_sealevel;temperature;humidity
72959;BME280;60008;50.826;6.896;2023-07-29T00:02:49;100302.25;;;19.02;100.00
72959;BME280;60008;50.826;6.896;2023-07-29T00:05:34;100298.75;;;19.02;100.00
72959;BME280;60008;50.826;6.896;2023-07-29T00:08:26;100297.84;;;19.08;100.00
72959;BME280;60008;50.826;6.896;2023-07-29T00:11:18;100288.59;;;19.04;100.00
72959;BME280;60008;50.826;6.896;2023-07-29T00:14:10;100286.94;;;19.03;100.00
72959;BME280;60008;50.826;6.896;2023-07-29T00:16:55;100286.94;;;19.03;100.00
72959;BME280;60008;50.826;6.896;2023-07-29T00:19:46;100282.53;;;19.09;100.00
72959;BME280;60008;50.826;6.896;2023-07-29T00:22:31;100289.31;;;19.11;100.00
72959;BME280;60008;50.826;6.896;2023-07-29T00:25:23;100289.69;;;19.15;100.00
72959;BME280;60008;50.826;6.896;2023-07-29T00:28:15;100294.03;;;19.16;100.00
72959;BME280;60008;50.826;6.896;2023-07-29T00:31:01;100293.97;;;19.04;100.00
72959;BME280;60008;50.826;6.896;2023-07-29T00:33:53;100284.41;;;19.08;100.00
72959;BME280;60008;50.826;6.896;2023-07-29T00:36:38;100281.81;;;19.01;100.00
72959;BME280;60008;50.826;6.896;2023-07-29T00:39:30;100281.72;;;19.08;100.00
72959;BME280;60008;50.826;6.896;2023-07-29T00:42:15;100278.91;;;19.03;100.00
72959;BME280;60008;50.826;6.896;2023-07-29T00:45:08;100280.41;;;18.99;100.00
72959;BME280;60008;50.826;6.896;2023-07-29T00:48:01;100277.88;;;19.04;100.00
72959;BME280;60008;50.826;6.896;2023-07-29T00:50:47;100280.84;;;18.96;100.00
72959;BME280;60008;50.826;6.896;2023-07-29T00:53:39;100269.44;;;19.00;100.00
72959;BME280;60008;50.826;6.896;2023-07-29T00:56:31;100270.38;;;19.06;100.00
72959;BME280;60008;50.826;6.896;2023-07-29T00:59:16;100251.53;;;18.94;100.00
72959;BME280;60008;50.826;6.896;2023-07-29T01:02:15;100249.53;;;18.90;100.00
72959;BME280;60008;50.826;6.896;2023-07-29T01:05:01;100252.13;;;18.96;100.00
72959;BME280;60008;50.826;6.896;2023-07-29T01:08:02;100256.09;;;18.94;100.00
72959;BME280;60008;50.826;6.896;2023-07-29T01:10:58;100248.25;;;18.92;100.00
72959;BME280;60008;50.826;6.896;2023-07-29T01:14:04;100246.25;;;18.88;100.00
72959;BME280;60008;50.826;6.896;2023-07-29T01:17:04;100248.94;;;18.88;100.00
72959;BME280;60008;50.826;6.896;2023-07-29T01:20:04;100248.50;;;18.91;100.00
72959;BME280;60008;50.826;6.896;2023-07-29T01:22:51;100233.50;;;18.83;100.00
72959;BME280;60008;50.826;6.896;2023-07-29T01:25:43;100231.41;;;18.85;100.00
72959;BME280;60008;50.826;6.896;2023-07-29T01:28:35;100236.22;;;18.95;100.00
72959;BME280;60008;50.826;6.896;2023-07-29T01:31:43;100233.69;;;19.00;100.00
72959;BME280;60008;50.826;6.896;2023-07-29T01:34:41;100248.38;;;18.97;100.00
72959;BME280;60008;50.826;6.896;2023-07-29T01:37:30;100234.13;;;18.97;100.00
72959;BME280;60008;50.826;6.896;2023-07-29T01:40:26;100232.66;;;19.01;100.00
72959;BME280;60008;50.826;6.896;2023-07-29T01:43:12;100229.72;;;19.02;100.00
72959;BME280;60008;50.826;6.896;2023-07-29T01:46:03;100231.69;;;18.95;100.00
72959;BME280;60008;50.826;6.896;2023-07-29T01:48:48;100235.56;;;18.99;100.00
72959;BME280;60008;50.826;6.896;2023-07-29T01:51:40;100233.47;;;19.01;100.00
72959;BME280;60008;50.826;6.896;2023-07-29T01:54:26;100234.75;;;18.99;100.00
72959;BME280;60008;50.826;6.896;2023-07-29T01:57:17;100260.72;;;19.05;100.00
72959;BME280;60008;50.826;6.896;2023-07-29T02:00:03;100259.06;;;19.04;100.00
72959;BME280;60008;50.826;6.896;2023-07-29T02:02:55;100259.97;;;18.98;100.00
72959;BME280;60008;50.826;6.896;2023-07-29T02:05:46;100255.72;;;18.90;100.00
72959;BME280;60008;50.826;6.896;2023-07-29T02:08:38;100249.22;;;18.98;100.00
72959;BME280;60008;50.826;6.896;2023-07-29T02:11:32;100247.81;;;18.95;100.00
72959;BME280;60008;50.826;6.896;2023-07-29T02:14:23;100245.94;;;18.96;100.00
72959;BME280;60008;50.826;6.896;2023-07-29T02:17:16;100240.19;;;18.92;100.00
72959;BME280;60008;50.826;6.896;2023-07-29T02:20:02;100243.34;;;18.89;100.00
72959;BME280;60008;50.826;6.896;2023-07-29T02:22:55;100233.66;;;18.88;100.00
72959;BME280;60008;50.826;6.896;2023-07-29T02:25:42;100236.56;;;18.87;100.00
72959;BME280;60008;50.826;6.896;2023-07-29T02:28:34;100226.03;;;18.85;100.00
72959;BME280;60008;50.826;6.896;2023-07-29T02:31:21;100229.06;;;18.89;100.00
72959;BME280;60008;50.826;6.896;2023-07-29T02:34:13;100221.25;;;18.87;100.00
72959;BME280;60008;50.826;6.896;2023-07-29T02:36:58;100236.03;;;18.78;100.00
72959;BME280;60008;50.826;6.896;2023-07-29T02:39:50;100242.09;;;18.74;100.00
72959;BME280;60008;50.826;6.896;2023-07-29T02:42:42;100254.25;;;18.76;100.00
72959;BME280;60008;50.826;6.896;2023-07-29T02:45:28;100255.91;;;18.77;100.00
72959;BME280;60008;50.826;6.896;2023-07-29T02:48:20;100242.81;;;18.81;100.00
72959;BME280;60008;50.826;6.896;2023-07-29T02:51:11;100247.84;;;18.77;100.00
72959;BME280;60008;50.826;6.896;2023-07-29T02:54:03;100241.84;;;18.75;100.00
72959;BME280;60008;50.826;6.896;2023-07-29T02:56:50;100248.50;;;18.73;100.00
72959;BME280;60008;50.826;6.896;2023-07-29T02:59:42;100245.03;;;18.72;100.00
72959;BME280;60008;50.826;6.896;2023-07-29T03:02:28;100240.44;;;18.73;100.00
72959;BME280;60008;50.826;6.896;2023-07-29T03:05:20;100238.13;;;18.76;100.00
72959;BME280;60008;50.826;6.896;2023-07-29T03:08:05;100239.69;;;18.84;100.00
72959;BME280;60008;50.826;6.896;2023-07-29T03:11:04;100228.50;;;18.87;100.00
72959;BME280;60008;50.826;6.896;2023-07-29T03:13:50;100230.59;;;18.85;100.00
72959;BME280;60008;50.826;6.896;2023-07-29T03:16:41;100238.19;;;18.88;100.00
72959;BME280;60008;50.826;6.896;2023-07-29T03:19:28;100232.25;;;18.86;100.00
72959;BME280;60008;50.826;6.896;2023-07-29T03:22:19;100242.38;;;18.84;100.00
72959;BME280;60008;50.826;6.896;2023-07-29T03:25:05;100247.16;;;18.82;100.00
72959;BME280;60008;50.826;6.896;2023-07-29T03:27:57;100253.28;;;18.71;100.00
72959;BME280;60008;50.826;6.896;2023-07-29T03:30:42;100247.31;;;18.69;100.00
72959;BME280;60008;50.826;6.896;2023-07-29T03:33:34;100241.72;;;18.70;100.00
72959;BME280;60008;50.826;6.896;2023-07-29T03:36:20;100243.53;;;18.58;100.00
72959;BME280;60008;50.826;6.896;2023-07-29T03:39:13;100249.94;;;18.57;100.00
72959;BME280;60008;50.826;6.896;2023-07-29T03:41:59;100239.34;;;18.62;100.00
72959;BME280;60008;50.826;6.896;2023-07-29T03:44:50;100233.53;;;18.65;100.00
72959;BME280;60008;50.826;6.896;2023-07-29T03:47:42;100221.81;;;18.60;100.00
72959;BME280;60008;50.826;6.896;2023-07-29T03:50:35;100222.94;;;18.70;100.00
72959;BME280;60008;50.826;6.896;2023-07-29T03:53:20;100207.25;;;18.67;100.00
72959;BME280;60008;50.826;6.896;2023-07-29T03:56:12;100213.69;;;18.66;100.00
72959;BME280;60008;50.826;6.896;2023-07-29T03:59:07;100214.66;;;18.72;100.00
72959;BME280;60008;50.826;6.896;2023-07-29T04:02:05;100221.16;;;18.64;100.00
72959;BME280;60008;50.826;6.896;2023-07-29T04:05:05;100225.72;;;18.64;100.00
72959;BME280;60008;50.826;6.896;2023-07-29T04:07:59;100232.66;;;18.53;100.00
72959;BME280;60008;50.826;6.896;2023-07-29T04:10:45;100238.88;;;18.47;100.00
72959;BME280;60008;50.826;6.896;2023-07-29T04:13:37;100238.88;;;18.47;100.00
72959;BME280;60008;50.826;6.896;2023-07-29T04:16:22;100231.03;;;18.45;100.00
72959;BME280;60008;50.826;6.896;2023-07-29T04:19:14;100243.34;;;18.35;100.00
72959;BME280;60008;50.826;6.896;2023-07-29T04:22:06;100246.84;;;18.35;100.00
72959;BME280;60008;50.826;6.896;2023-07-29T04:24:58;100249.09;;;18.38;100.00
72959;BME280;60008;50.826;6.896;2023-07-29T04:27:44;100247.28;;;18.32;100.00
72959;BME280;60008;50.826;6.896;2023-07-29T04:30:35;100235.53;;;18.33;100.00
72959;BME280;60008;50.826;6.896;2023-07-29T04:33:20;100240.81;;;18.40;100.00
72959;BME280;60008;50.826;6.896;2023-07-29T04:36:13;100256.56;;;18.36;100.00
72959;BME280;60008;50.826;6.896;2023-07-29T04:39:04;100261.78;;;18.31;100.00
72959;BME280;60008;50.826;6.896;2023-07-29T04:41:50;100264.44;;;18.31;100.00
72959;BME280;60008;50.826;6.896;2023-07-29T04:44:41;100265.63;;;18.35;100.00
72959;BME280;60008;50.826;6.896;2023-07-29T04:47:33;100261.16;;;18.29;100.00
72959;BME280;60008;50.826;6.896;2023-07-29T04:50:25;100259.22;;;18.36;100.00
72959;BME280;60008;50.826;6.896;2023-07-29T04:53:11;100251.25;;;18.30;100.00
72959;BME280;60008;50.826;6.896;2023-07-29T04:56:02;100253.34;;;18.28;100.00
72959;BME280;60008;50.826;6.896;2023-07-29T04:58:48;100258.47;;;18.29;100.00
72959;BME280;60008;50.826;6.896;2023-07-29T05:01:46;100256.84;;;18.28;100.00
72959;BME280;60008;50.826;6.896;2023-07-29T05:04:45;100254.00;;;18.23;100.00
72959;BME280;60008;50.826;6.896;2023-07-29T05:07:36;100239.97;;;18.21;100.00
72959;BME280;60008;50.826;6.896;2023-07-29T05:10:21;100244.31;;;18.22;100.00
72959;BME280;60008;50.826;6.896;2023-07-29T05:13:13;100240.59;;;18.23;100.00
72959;BME280;60008;50.826;6.896;2023-07-29T05:15:59;100247.09;;;18.34;100.00
72959;BME280;60008;50.826;6.896;2023-07-29T05:18:50;100248.25;;;18.38;100.00
72959;BME280;60008;50.826;6.896;2023-07-29T05:21:37;100233.88;;;18.32;100.00
72959;BME280;60008;50.826;6.896;2023-07-29T05:24:29;100240.00;;;18.39;100.00
72959;BME280;60008;50.826;6.896;2023-07-29T05:27:14;100249.75;;;18.34;100.00
72959;BME280;60008;50.826;6.896;2023-07-29T05:30:07;100257.19;;;18.32;100.00
72959;BME280;60008;50.826;6.896;2023-07-29T05:32:52;100261.97;;;18.30;100.00
72959;BME280;60008;50.826;6.896;2023-07-29T05:35:44;100274.66;;;18.23;100.00
72959;BME280;60008;50.826;6.896;2023-07-29T05:38:32;100282.03;;;18.27;100.00
72959;BME280;60008;50.826;6.896;2023-07-29T05:41:23;100272.31;;;18.26;100.00
72959;BME280;60008;50.826;6.896;2023-07-29T05:44:09;100256.31;;;18.38;100.00
72959;BME280;60008;50.826;6.896;2023-07-29T05:47:00;100265.94;;;18.45;100.00
72959;BME280;60008;50.826;6.896;2023-07-29T05:49:45;100257.81;;;18.34;100.00
72959;BME280;60008;50.826;6.896;2023-07-29T05:52:37;100264.88;;;18.47;100.00
72959;BME280;60008;50.826;6.896;2023-07-29T05:55:23;100277.22;;;18.54;100.00
72959;BME280;60008;50.826;6.896;2023-07-29T05:58:14;100276.88;;;18.51;100.00
72959;BME280;60008;50.826;6.896;2023-07-29T06:01:13;100280.88;;;18.60;100.00
72959;BME280;60008;50.826;6.896;2023-07-29T06:04:12;100280.06;;;18.59;100.00
72959;BME280;60008;50.826;6.896;2023-07-29T06:07:05;100287.16;;;18.72;100.00
72959;BME280;60008;50.826;6.896;2023-07-29T06:09:50;100302.28;;;18.66;100.00
72959;BME280;60008;50.826;6.896;2023-07-29T06:12:46;100302.78;;;18.57;100.00
72959;BME280;60008;50.826;6.896;2023-07-29T06:15:38;100302.72;;;18.63;100.00
72959;BME280;60008;50.826;6.896;2023-07-29T06:18:24;100306.25;;;18.64;100.00
72959;BME280;60008;50.826;6.896;2023-07-29T06:21:16;100308.47;;;18.85;100.00
72959;BME280;60008;50.826;6.896;2023-07-29T06:24:02;100323.38;;;18.81;100.00
72959;BME280;60008;50.826;6.896;2023-07-29T06:26:55;100321.22;;;18.89;100.00
72959;BME280;60008;50.826;6.896;2023-07-29T06:29:39;100313.81;;;19.03;100.00
72959;BME280;60008;50.826;6.896;2023-07-29T06:32:31;100326.91;;;18.99;100.00
72959;BME280;60008;50.826;6.896;2023-07-29T06:35:16;100320.31;;;18.95;100.00
72959;BME280;60008;50.826;6.896;2023-07-29T06:38:08;100316.06;;;19.06;100.00
72959;BME280;60008;50.826;6.896;2023-07-29T06:40:54;100321.69;;;19.16;100.00
72959;BME280;60008;50.826;6.896;2023-07-29T06:43:45;100310.31;;;19.02;100.00
72959;BME280;60008;50.826;6.896;2023-07-29T06:46:37;100303.69;;;19.05;100.00
72959;BME280;60008;50.826;6.896;2023-07-29T06:49:23;100305.84;;;18.96;100.00
72959;BME280;60008;50.826;6.896;2023-07-29T06:52:14;100320.84;;;19.04;100.00
72959;BME280;60008;50.826;6.896;2023-07-29T06:55:00;100310.97;;;19.46;100.00
72959;BME280;60008;50.826;6.896;2023-07-29T06:57:51;100309.22;;;19.70;100.00
72959;BME280;60008;50.826;6.896;2023-07-29T07:00:43;100293.38;;;19.50;100.00
72959;BME280;60008;50.826;6.896;2023-07-29T07:03:41;100307.69;;;19.62;100.00
72959;BME280;60008;50.826;6.896;2023-07-29T07:06:27;100312.81;;;19.64;100.00
72959;BME280;60008;50.826;6.896;2023-07-29T07:09:19;100321.91;;;19.51;100.00
72959;BME280;60008;50.826;6.896;2023-07-29T07:12:11;100326.16;;;19.70;100.00
72959;BME280;60008;50.826;6.896;2023-07-29T07:15:04;100324.69;;;19.97;100.00
72959;BME280;60008;50.826;6.896;2023-07-29T07:17:55;100320.25;;;19.91;100.00
72959;BME280;60008;50.826;6.896;2023-07-29T07:20:49;100320.50;;;19.60;100.00
72959;BME280;60008;50.826;6.896;2023-07-29T07:23:41;100325.22;;;19.65;100.00
72959;BME280;60008;50.826;6.896;2023-07-29T07:26:32;100307.78;;;19.37;100.00
72959;BME280;60008;50.826;6.896;2023-07-29T07:29:24;100307.81;;;19.79;100.00
72959;BME280;60008;50.826;6.896;2023-07-29T07:32:09;100312.47;;;19.72;100.00
72959;BME280;60008;50.826;6.896;2023-07-29T07:35:01;100331.72;;;19.57;100.00
72959;BME280;60008;50.826;6.896;2023-07-29T07:37:53;100336.09;;;19.70;100.00
72959;BME280;60008;50.826;6.896;2023-07-29T07:40:38;100342.00;;;19.60;100.00
72959;BME280;60008;50.826;6.896;2023-07-29T07:43:30;100344.16;;;19.81;100.00
72959;BME280;60008;50.826;6.896;2023-07-29T07:46:22;100323.34;;;19.77;100.00
72959;BME280;60008;50.826;6.896;2023-07-29T07:49:07;100333.19;;;19.83;100.00
72959;BME280;60008;50.826;6.896;2023-07-29T07:52:00;100313.72;;;20.10;100.00
72959;BME280;60008;50.826;6.896;2023-07-29T07:54:45;100308.13;;;20.35;100.00
72959;BME280;60008;50.826;6.896;2023-07-29T07:57:36;100284.88;;;21.20;100.00
72959;BME280;60008;50.826;6.896;2023-07-29T08:00:21;100278.06;;;21.29;100.00
72959;BME280;60008;50.826;6.896;2023-07-29T08:03:13;100270.59;;;21.65;100.00
72959;BME280;60008;50.826;6.896;2023-07-29T08:06:11;100278.22;;;21.40;100.00
72959;BME280;60008;50.826;6.896;2023-07-29T08:09:03;100269.34;;;23.26;100.00
72959;BME280;60008;50.826;6.896;2023-07-29T08:11:55;100268.44;;;23.74;100.00
72959;BME280;60008;50.826;6.896;2023-07-29T08:14:47;100269.34;;;23.84;100.00
72959;BME280;60008;50.826;6.896;2023-07-29T08:17:39;100287.97;;;23.00;100.00
72959;BME280;60008;50.826;6.896;2023-07-29T08:20:24;100292.63;;;23.05;100.00
72959;BME280;60008;50.826;6.896;2023-07-29T08:23:16;100277.72;;;23.02;100.00
72959;BME280;60008;50.826;6.896;2023-07-29T08:26:03;100282.72;;;21.34;100.00
72959;BME280;60008;50.826;6.896;2023-07-29T08:28:56;100287.56;;;21.20;100.00
72959;BME280;60008;50.826;6.896;2023-07-29T08:31:41;100289.97;;;21.05;100.00
72959;BME280;60008;50.826;6.896;2023-07-29T08:34:33;100297.66;;;20.73;100.00
72959;BME280;60008;50.826;6.896;2023-07-29T08:37:25;100298.19;;;20.24;100.00
72959;BME280;60008;50.826;6.896;2023-07-29T08:40:12;100307.03;;;20.01;100.00
72959;BME280;60008;50.826;6.896;2023-07-29T08:43:05;100314.03;;;19.91;100.00
72959;BME280;60008;50.826;6.896;2023-07-29T08:45:58;100325.09;;;19.71;100.00
72959;BME280;60008;50.826;6.896;2023-07-29T08:48:51;100325.59;;;19.80;100.00
72959;BME280;60008;50.826;6.896;2023-07-29T08:51:37;100322.66;;;19.81;100.00
72959;BME280;60008;50.826;6.896;2023-07-29T08:54:29;100304.81;;;19.98;100.00
72959;BME280;60008;50.826;6.896;2023-07-29T08:57:21;100314.38;;;20.06;100.00
72959;BME280;60008;50.826;6.896;2023-07-29T09:00:07;100334.97;;;19.89;100.00
72959;BME280;60008;50.826;6.896;2023-07-29T09:03:02;100326.19;;;19.93;100.00
72959;BME280;60008;50.826;6.896;2023-07-29T09:06:01;100337.81;;;20.05;100.00
72959;BME280;60008;50.826;6.896;2023-07-29T09:08:54;100325.38;;;19.93;100.00
72959;BME280;60008;50.826;6.896;2023-07-29T09:11:48;100325.88;;;20.01;100.00
72959;BME280;60008;50.826;6.896;2023-07-29T09:14:39;100331.91;;;20.38;100.00
72959;BME280;60008;50.826;6.896;2023-07-29T09:17:33;100315.13;;;20.59;100.00
72959;BME280;60008;50.826;6.896;2023-07-29T09:20:24;100325.81;;;20.43;100.00
72959;BME280;60008;50.826;6.896;2023-07-29T09:23:15;100319.69;;;20.12;100.00
72959;BME280;60008;50.826;6.896;2023-07-29T09:26:02;100314.41;;;20.17;100.00
72959;BME280;60008;50.826;6.896;2023-07-29T09:28:57;100317.94;;;20.41;100.00
72959;BME280;60008;50.826;6.896;2023-07-29T09:31:43;100317.22;;;20.57;100.00
72959;BME280;60008;50.826;6.896;2023-07-29T09:34:41;100316.28;;;20.63;100.00
72959;BME280;60008;50.826;6.896;2023-07-29T09:37:26;100323.44;;;20.58;100.00
72959;BME280;60008;50.826;6.896;2023-07-29T09:40:19;100321.72;;;20.52;100.00
72959;BME280;60008;50.826;6.896;2023-07-29T09:43:05;100321.44;;;20.65;100.00
72959;BME280;60008;50.826;6.896;2023-07-29T09:46:05;100321.81;;;20.34;100.00
72959;BME280;60008;50.826;6.896;2023-07-29T09:48:53;100318.19;;;20.51;100.00
72959;BME280;60008;50.826;6.896;2023-07-29T09:51:46;100305.00;;;20.90;100.00
72959;BME280;60008;50.826;6.896;2023-07-29T09:54:31;100315.28;;;21.44;100.00
72959;BME280;60008;50.826;6.896;2023-07-29T09:57:23;100309.50;;;21.52;100.00
72959;BME280;60008;50.826;6.896;2023-07-29T10:00:15;100319.22;;;21.25;100.00
72959;BME280;60008;50.826;6.896;2023-07-29T10:03:01;100322.75;;;20.51;100.00
72959;BME280;60008;50.826;6.896;2023-07-29T10:06:04;100324.00;;;20.83;100.00
72959;BME280;60008;50.826;6.896;2023-07-29T10:08:50;100322.41;;;20.99;100.00
72959;BME280;60008;50.826;6.896;2023-07-29T10:11:42;100328.72;;;21.27;100.00
72959;BME280;60008;50.826;6.896;2023-07-29T10:14:27;100327.09;;;21.43;100.00
72959;BME280;60008;50.826;6.896;2023-07-29T10:17:20;100330.34;;;21.73;100.00
72959;BME280;60008;50.826;6.896;2023-07-29T10:20:08;100324.41;;;21.03;100.00
72959;BME280;60008;50.826;6.896;2023-07-29T10:23:00;100342.09;;;21.22;100.00
72959;BME280;60008;50.826;6.896;2023-07-29T10:26:03;100336.16;;;20.97;100.00
72959;BME280;60008;50.826;6.896;2023-07-29T10:28:52;100329.63;;;20.82;100.00
72959;BME280;60008;50.826;6.896;2023-07-29T10:31:45;100331.88;;;20.73;100.00
72959;BME280;60008;50.826;6.896;2023-07-29T10:34:38;100345.69;;;20.53;100.00
72959;BME280;60008;50.826;6.896;2023-07-29T10:37:23;100339.50;;;20.30;100.00
72959;BME280;60008;50.826;6.896;2023-07-29T10:40:15;100354.91;;;20.23;100.00
72959;BME280;60008;50.826;6.896;2023-07-29T10:43:11;100376.91;;;20.08;100.00
72959;BME280;60008;50.826;6.896;2023-07-29T10:46:20;100376.72;;;19.91;100.00
72959;BME280;60008;50.826;6.896;2023-07-29T10:49:12;100388.22;;;19.69;100.00
72959;BME280;60008;50.826;6.896;2023-07-29T10:51:57;100391.94;;;19.56;100.00
72959;BME280;60008;50.826;6.896;2023-07-29T10:54:48;100394.38;;;19.57;100.00
72959;BME280;60008;50.826;6.896;2023-07-29T10:57:35;100402.41;;;19.76;100.00
72959;BME280;60008;50.826;6.896;2023-07-29T11:00:30;100400.41;;;19.71;100.00
72959;BME280;60008;50.826;6.896;2023-07-29T11:03:28;100402.38;;;19.64;100.00
72959;BME280;60008;50.826;6.896;2023-07-29T11:06:14;100407.56;;;19.47;100.00
72959;BME280;60008;50.826;6.896;2023-07-29T11:12:37;100415.31;;;19.37;100.00
72959;BME280;60008;50.826;6.896;2023-07-29T11:15:29;100407.69;;;19.34;100.00
72959;BME280;60008;50.826;6.896;2023-07-29T11:18:21;100410.78;;;19.97;100.00
72959;BME280;60008;50.826;6.896;2023-07-29T11:21:06;100385.03;;;20.43;100.00
72959;BME280;60008;50.826;6.896;2023-07-29T11:23:58;100368.28;;;20.52;100.00
72959;BME280;60008;50.826;6.896;2023-07-29T11:26:50;100378.00;;;20.42;100.00
72959;BME280;60008;50.826;6.896;2023-07-29T11:29:35;100384.31;;;20.47;100.00
72959;BME280;60008;50.826;6.896;2023-07-29T11:32:26;100371.84;;;20.11;100.00
72959;BME280;60008;50.826;6.896;2023-07-29T11:35:18;100360.78;;;20.77;100.00
72959;BME280;60008;50.826;6.896;2023-07-29T11:38:14;100347.50;;;21.67;100.00
72959;BME280;60008;50.826;6.896;2023-07-29T11:41:01;100346.13;;;21.93;100.00
72959;BME280;60008;50.826;6.896;2023-07-29T11:43:54;100352.31;;;21.93;100.00
72959;BME280;60008;50.826;6.896;2023-07-29T11:46:39;100345.16;;;21.71;100.00
72959;BME280;60008;50.826;6.896;2023-07-29T11:49:33;100332.09;;;22.29;100.00
72959;BME280;60008;50.826;6.896;2023-07-29T11:52:18;100328.44;;;22.02;100.00
72959;BME280;60008;50.826;6.896;2023-07-29T11:55:11;100331.81;;;21.92;100.00
72959;BME280;60008;50.826;6.896;2023-07-29T11:58:04;100325.22;;;22.55;100.00
72959;BME280;60008;50.826;6.896;2023-07-29T12:00:49;100313.28;;;22.18;100.00
72959;BME280;60008;50.826;6.896;2023-07-29T12:03:41;100315.19;;;22.17;100.00
72959;BME280;60008;50.826;6.896;2023-07-29T12:06:34;100315.91;;;21.79;100.00
72959;BME280;60008;50.826;6.896;2023-07-29T12:09:27;100322.50;;;21.72;100.00
72959;BME280;60008;50.826;6.896;2023-07-29T12:12:12;100305.53;;;21.88;100.00
72959;BME280;60008;50.826;6.896;2023-07-29T12:15:05;100306.00;;;21.68;100.00
72959;BME280;60008;50.826;6.896;2023-07-29T12:17:53;100282.06;;;22.05;100.00
72959;BME280;60008;50.826;6.896;2023-07-29T12:20:47;100295.22;;;22.02;100.00
72959;BME280;60008;50.826;6.896;2023-07-29T12:23:32;100286.69;;;22.26;100.00
72959;BME280;60008;50.826;6.896;2023-07-29T12:26:27;100285.88;;;22.26;100.00
72959;BME280;60008;50.826;6.896;2023-07-29T12:29:18;100275.53;;;22.39;100.00
72959;BME280;60008;50.826;6.896;2023-07-29T12:32:12;100276.91;;;22.80;100.00
72959;BME280;60008;50.826;6.896;2023-07-29T12:35:20;100268.38;;;22.67;100.00
72959;BME280;60008;50.826;6.896;2023-07-29T12:38:21;100270.03;;;22.51;100.00
72959;BME280;60008;50.826;6.896;2023-07-29T12:41:19;100266.63;;;22.39;100.00
72959;BME280;60008;50.826;6.896;2023-07-29T12:44:11;100259.97;;;22.63;100.00
72959;BME280;60008;50.826;6.896;2023-07-29T12:47:05;100248.66;;;22.28;100.00
72959;BME280;60008;50.826;6.896;2023-07-29T12:49:50;100242.72;;;22.09;100.00
72959;BME280;60008;50.826;6.896;2023-07-29T12:52:42;100238.47;;;21.97;100.00
72959;BME280;60008;50.826;6.896;2023-07-29T12:55:34;100254.00;;;22.06;100.00
72959;BME280;60008;50.826;6.896;2023-07-29T12:58:19;100254.56;;;21.75;100.00
72959;BME280;60008;50.826;6.896;2023-07-29T13:01:12;100258.06;;;21.75;100.00
72959;BME280;60008;50.826;6.896;2023-07-29T13:04:03;100272.72;;;21.63;100.00
72959;BME280;60008;50.826;6.896;2023-07-29T13:06:55;100277.25;;;21.46;100.00
72959;BME280;60008;50.826;6.896;2023-07-29T13:09:41;100285.50;;;21.39;100.00
72959;BME280;60008;50.826;6.896;2023-07-29T13:12:32;100279.34;;;21.27;100.00
72959;BME280;60008;50.826;6.896;2023-07-29T13:15:18;100279.19;;;21.17;100.00
72959;BME280;60008;50.826;6.896;2023-07-29T13:18:09;100281.34;;;21.20;100.00
72959;BME280;60008;50.826;6.896;2023-07-29T13:20:55;100275.09;;;21.14;100.00
72959;BME280;60008;50.826;6.896;2023-07-29T13:23:47;100280.59;;;20.96;100.00
72959;BME280;60008;50.826;6.896;2023-07-29T13:26:38;100281.56;;;20.90;100.00
72959;BME280;60008;50.826;6.896;2023-07-29T13:29:23;100264.91;;;20.93;100.00
72959;BME280;60008;50.826;6.896;2023-07-29T13:32:15;100272.16;;;20.93;100.00
72959;BME280;60008;50.826;6.896;2023-07-29T13:35:01;100297.25;;;20.93;100.00
72959;BME280;60008;50.826;6.896;2023-07-29T13:37:52;100316.06;;;20.65;100.00
72959;BME280;60008;50.826;6.896;2023-07-29T13:40:45;100338.91;;;20.51;100.00
72959;BME280;60008;50.826;6.896;2023-07-29T13:43:37;100357.88;;;20.33;100.00
72959;BME280;60008;50.826;6.896;2023-07-29T13:46:28;100383.84;;;19.86;100.00
72959;BME280;60008;50.826;6.896;2023-07-29T13:49:13;100368.78;;;19.37;100.00
72959;BME280;60008;50.826;6.896;2023-07-29T13:52:05;100369.94;;;19.11;100.00
72959;BME280;60008;50.826;6.896;2023-07-29T13:54:50;100371.50;;;19.00;100.00
72959;BME280;60008;50.826;6.896;2023-07-29T13:57:43;100387.31;;;18.90;100.00
72959;BME280;60008;50.826;6.896;2023-07-29T14:00:28;100379.78;;;18.99;100.00
72959;BME280;60008;50.826;6.896;2023-07-29T14:03:25;100392.69;;;19.27;100.00
72959;BME280;60008;50.826;6.896;2023-07-29T14:06:24;100392.22;;;19.30;100.00
72959;BME280;60008;50.826;6.896;2023-07-29T14:09:30;100390.09;;;19.38;100.00
72959;BME280;60008;50.826;6.896;2023-07-29T14:12:16;100385.00;;;19.48;100.00
72959;BME280;60008;50.826;6.896;2023-07-29T14:15:08;100370.44;;;19.68;100.00
72959;BME280;60008;50.826;6.896;2023-07-29T14:18:00;100360.06;;;19.71;100.00
72959;BME280;60008;50.826;6.896;2023-07-29T14:20:51;100368.38;;;19.81;100.00
72959;BME280;60008;50.826;6.896;2023-07-29T14:23:36;100368.03;;;19.78;100.00
72959;BME280;60008;50.826;6.896;2023-07-29T14:26:29;100363.63;;;19.95;100.00
72959;BME280;60008;50.826;6.896;2023-07-29T14:29:14;100352.06;;;20.06;100.00
72959;BME280;60008;50.826;6.896;2023-07-29T14:32:06;100376.97;;;20.01;100.00
72959;BME280;60008;50.826;6.896;2023-07-29T14:34:51;100372.78;;;20.17;100.00
72959;BME280;60008;50.826;6.896;2023-07-29T14:37:43;100371.97;;;20.16;100.00
72959;BME280;60008;50.826;6.896;2023-07-29T14:40:28;100360.75;;;20.19;100.00
72959;BME280;60008;50.826;6.896;2023-07-29T14:43:20;100351.16;;;20.24;100.00
72959;BME280;60008;50.826;6.896;2023-07-29T14:46:11;100359.38;;;20.29;100.00